sensor_id;sensor_type;location;lat;lon;timestamp;pressure;altitude;pressure_sealevel;temperature;humidity
36260;BME280;22296;50.824;5.644;2022-12-29T00:02:00;99374.75;;;16.92;55.89
36260;BME280;22296;50.824;5.644;2022-12-29T00:04:27;99371.53;;;16.90;55.71
36260;BME280;22296;50.824;5.644;2022-12-29T00:06:54;99376.72;;;16.91;55.95
36260;BME280;22296;50.824;5.644;2022-12-29T00:09:20;99369.34;;;16.80;56.17
36260;BME280;22296;50.824;5.644;2022-12-29T00:11:48;99378.94;;;16.82;55.83
36260;BME280;22296;50.824;5.644;2022-12-29T00:14:16;99366.13;;;16.78;56.13
36260;BME280;22296;50.824;5.644;2022-12-29T00:17:02;99350.88;;;16.72;56.11
36260;BME280;22296;50.824;5.644;2022-12-29T00:19:29;99361.13;;;16.68;56.37
36260;BME280;22296;50.824;5.644;2022-12-29T00:22:15;99357.94;;;16.66;56.40
36260;BME280;22296;50.824;5.644;2022-12-29T00:25:00;99359.03;;;16.61;56.56
36260;BME280;22296;50.824;5.644;2022-12-29T00:27:46;99362.09;;;16.56;56.77
36260;BME280;22296;50.824;5.644;2022-12-29T00:30:34;99356.91;;;16.55;56.57
36260;BME280;22296;50.824;5.644;2022-12-29T00:33:22;99363.72;;;16.57;56.42
36260;BME280;22296;50.824;5.644;2022-12-29T00:38:42;99358.25;;;16.45;56.88
36260;BME280;22296;50.824;5.644;2022-12-29T00:41:30;99351.88;;;16.44;56.86
36260;BME280;22296;50.824;5.644;2022-12-29T00:44:15;99345.47;;;16.40;56.85
36260;BME280;22296;50.824;5.644;2022-12-29T00:46:43;99357.31;;;16.37;56.98
36260;BME280;22296;50.824;5.644;2022-12-29T00:49:12;99363.59;;;16.34;56.91
36260;BME280;22296;50.824;5.644;2022-12-29T00:52:08;99351.25;;;16.32;57.16
36260;BME280;22296;50.824;5.644;2022-12-29T00:54:37;99357.97;;;16.31;57.09
36260;BME280;22296;50.824;5.644;2022-12-29T00:57:06;99348.81;;;16.30;57.04
36260;BME280;22296;50.824;5.644;2022-12-29T00:59:37;99348.38;;;16.28;57.19
36260;BME280;22296;50.824;5.644;2022-12-29T01:02:04;99339.59;;;16.26;57.21
36260;BME280;22296;50.824;5.644;2022-12-29T01:04:32;99341.56;;;16.26;57.07
36260;BME280;22296;50.824;5.644;2022-12-29T01:06:59;99336.34;;;16.24;57.09
36260;BME280;22296;50.824;5.644;2022-12-29T01:09:26;99343.09;;;16.23;57.05
36260;BME280;22296;50.824;5.644;2022-12-29T01:12:12;99338.28;;;16.20;57.12
36260;BME280;22296;50.824;5.644;2022-12-29T01:14:40;99346.63;;;16.20;57.15
36260;BME280;22296;50.824;5.644;2022-12-29T01:17:07;99343.41;;;16.18;57.08
36260;BME280;22296;50.824;5.644;2022-12-29T01:19:34;99336.22;;;16.17;56.92
36260;BME280;22296;50.824;5.644;2022-12-29T01:22:00;99330.22;;;16.15;57.11
36260;BME280;22296;50.824;5.644;2022-12-29T01:24:27;99338.09;;;16.13;57.12
36260;BME280;22296;50.824;5.644;2022-12-29T01:26:54;99328.97;;;16.13;56.87
36260;BME280;22296;50.824;5.644;2022-12-29T01:29:21;99335.28;;;16.10;56.96
36260;BME280;22296;50.824;5.644;2022-12-29T01:31:48;99331.69;;;16.09;56.93
36260;BME280;22296;50.824;5.644;2022-12-29T01:34:17;99322.53;;;16.09;56.98
36260;BME280;22296;50.824;5.644;2022-12-29T01:36:44;99338.41;;;16.08;56.97
36260;BME280;22296;50.824;5.644;2022-12-29T01:39:11;99339.13;;;16.05;57.04
36260;BME280;22296;50.824;5.644;2022-12-29T01:41:41;99338.31;;;16.05;56.97
36260;BME280;22296;50.824;5.644;2022-12-29T01:47:13;99327.91;;;16.02;57.19
36260;BME280;22296;50.824;5.644;2022-12-29T01:49:41;99327.88;;;15.98;57.25
36260;BME280;22296;50.824;5.644;2022-12-29T01:52:09;99335.81;;;16.00;57.15
36260;BME280;22296;50.824;5.644;2022-12-29T01:54:45;99333.41;;;15.98;57.13
36260;BME280;22296;50.824;5.644;2022-12-29T01:57:18;99333.84;;;16.00;57.07
36260;BME280;22296;50.824;5.644;2022-12-29T01:59:51;99329.47;;;15.99;57.14
36260;BME280;22296;50.824;5.644;2022-12-29T02:02:21;99342.50;;;15.95;57.17
36260;BME280;22296;50.824;5.644;2022-12-29T02:04:48;99319.06;;;15.96;57.31
36260;BME280;22296;50.824;5.644;2022-12-29T02:07:19;99326.97;;;15.94;57.26
36260;BME280;22296;50.824;5.644;2022-12-29T02:09:47;99335.75;;;15.96;57.10
36260;BME280;22296;50.824;5.644;2022-12-29T02:12:16;99324.63;;;15.96;57.20
36260;BME280;22296;50.824;5.644;2022-12-29T02:14:44;99311.00;;;15.91;57.30
36260;BME280;22296;50.824;5.644;2022-12-29T02:25:30;99309.47;;;15.93;57.07
36260;BME280;22296;50.824;5.644;2022-12-29T02:31:26;99298.28;;;15.90;57.23
36260;BME280;22296;50.824;5.644;2022-12-29T02:37:03;99287.97;;;15.90;57.24
36260;BME280;22296;50.824;5.644;2022-12-29T02:39:43;99283.50;;;15.86;57.27
36260;BME280;22296;50.824;5.644;2022-12-29T02:45:21;99281.53;;;15.86;57.29
36260;BME280;22296;50.824;5.644;2022-12-29T02:50:53;99286.28;;;15.86;57.25
36260;BME280;22296;50.824;5.644;2022-12-29T02:53:24;99264.63;;;15.95;56.86
36260;BME280;22296;50.824;5.644;2022-12-29T02:56:11;99254.16;;;15.88;57.10
36260;BME280;22296;50.824;5.644;2022-12-29T02:58:40;99254.50;;;15.87;57.23
36260;BME280;22296;50.824;5.644;2022-12-29T03:04:40;99250.50;;;15.84;57.22
36260;BME280;22296;50.824;5.644;2022-12-29T03:13:11;99243.34;;;15.83;57.42
36260;BME280;22296;50.824;5.644;2022-12-29T03:18:56;99233.75;;;15.81;57.15
36260;BME280;22296;50.824;5.644;2022-12-29T03:24:26;99211.22;;;15.86;57.05
36260;BME280;22296;50.824;5.644;2022-12-29T03:26:58;99213.28;;;15.89;56.94
36260;BME280;22296;50.824;5.644;2022-12-29T03:29:31;99219.13;;;15.84;57.10
36260;BME280;22296;50.824;5.644;2022-12-29T03:32:01;99231.53;;;15.90;56.87
36260;BME280;22296;50.824;5.644;2022-12-29T03:34:30;99242.53;;;15.83;57.24
36260;BME280;22296;50.824;5.644;2022-12-29T03:37:01;99252.41;;;15.80;57.32
36260;BME280;22296;50.824;5.644;2022-12-29T03:39:29;99256.78;;;15.81;57.09
36260;BME280;22296;50.824;5.644;2022-12-29T03:41:59;99241.63;;;15.79;57.19
36260;BME280;22296;50.824;5.644;2022-12-29T03:44:43;99238.13;;;15.82;56.86
36260;BME280;22296;50.824;5.644;2022-12-29T03:47:14;99230.47;;;15.75;57.18
36260;BME280;22296;50.824;5.644;2022-12-29T03:49:43;99233.31;;;15.79;57.17
36260;BME280;22296;50.824;5.644;2022-12-29T03:52:11;99237.09;;;15.71;57.44
36260;BME280;22296;50.824;5.644;2022-12-29T03:54:42;99235.22;;;15.75;57.20
36260;BME280;22296;50.824;5.644;2022-12-29T03:57:10;99226.50;;;15.76;57.25
36260;BME280;22296;50.824;5.644;2022-12-29T03:59:55;99242.38;;;15.76;57.03
36260;BME280;22296;50.824;5.644;2022-12-29T04:02:22;99230.47;;;15.75;56.83
36260;BME280;22296;50.824;5.644;2022-12-29T04:04:51;99241.38;;;15.84;56.67
36260;BME280;22296;50.824;5.644;2022-12-29T04:07:18;99242.41;;;15.95;56.49
36260;BME280;22296;50.824;5.644;2022-12-29T04:09:45;99248.81;;;15.80;56.81
36260;BME280;22296;50.824;5.644;2022-12-29T04:12:17;99245.75;;;15.85;56.63
36260;BME280;22296;50.824;5.644;2022-12-29T04:14:44;99240.91;;;15.82;56.75
36260;BME280;22296;50.824;5.644;2022-12-29T04:17:11;99238.13;;;15.82;56.60
36260;BME280;22296;50.824;5.644;2022-12-29T04:19:40;99252.50;;;15.84;56.67
36260;BME280;22296;50.824;5.644;2022-12-29T04:22:07;99248.81;;;15.80;56.74
36260;BME280;22296;50.824;5.644;2022-12-29T04:24:34;99250.28;;;15.74;57.08
36260;BME280;22296;50.824;5.644;2022-12-29T04:27:02;99244.72;;;15.74;56.96
36260;BME280;22296;50.824;5.644;2022-12-29T04:29:39;99244.41;;;15.79;56.92
36260;BME280;22296;50.824;5.644;2022-12-29T04:32:06;99254.22;;;15.73;57.00
36260;BME280;22296;50.824;5.644;2022-12-29T04:34:37;99249.13;;;15.75;56.92
36260;BME280;22296;50.824;5.644;2022-12-29T04:37:05;99249.63;;;15.80;56.57
36260;BME280;22296;50.824;5.644;2022-12-29T04:39:31;99254.38;;;15.80;56.69
36260;BME280;22296;50.824;5.644;2022-12-29T04:42:01;99263.00;;;15.75;56.97
36260;BME280;22296;50.824;5.644;2022-12-29T04:44:28;99267.66;;;15.71;57.00
36260;BME280;22296;50.824;5.644;2022-12-29T04:46:55;99274.03;;;15.71;56.87
36260;BME280;22296;50.824;5.644;2022-12-29T04:49:48;99281.75;;;15.78;56.77
36260;BME280;22296;50.824;5.644;2022-12-29T04:52:33;99272.41;;;15.70;56.99
36260;BME280;22296;50.824;5.644;2022-12-29T04:55:02;99273.22;;;15.71;56.87
36260;BME280;22296;50.824;5.644;2022-12-29T04:57:29;99277.13;;;15.66;56.92
36260;BME280;22296;50.824;5.644;2022-12-29T04:59:58;99273.88;;;15.64;56.98
36260;BME280;22296;50.824;5.644;2022-12-29T05:02:25;99281.22;;;15.72;56.78
36260;BME280;22296;50.824;5.644;2022-12-29T05:04:54;99281.03;;;15.65;56.83
36260;BME280;22296;50.824;5.644;2022-12-29T05:07:22;99297.81;;;15.69;57.02
36260;BME280;22296;50.824;5.644;2022-12-29T05:09:50;99290.00;;;15.74;56.70
36260;BME280;22296;50.824;5.644;2022-12-29T05:12:17;99286.06;;;15.75;56.69
36260;BME280;22296;50.824;5.644;2022-12-29T05:14:52;99288.47;;;15.77;56.67
36260;BME280;22296;50.824;5.644;2022-12-29T05:17:19;99284.19;;;15.64;57.17
36260;BME280;22296;50.824;5.644;2022-12-29T05:19:46;99281.84;;;15.66;56.89
36260;BME280;22296;50.824;5.644;2022-12-29T05:22:12;99283.47;;;15.67;56.97
36260;BME280;22296;50.824;5.644;2022-12-29T05:24:40;99301.41;;;15.69;56.87
36260;BME280;22296;50.824;5.644;2022-12-29T05:27:07;99300.16;;;15.67;57.03
36260;BME280;22296;50.824;5.644;2022-12-29T05:29:46;99300.69;;;15.57;57.27
36260;BME280;22296;50.824;5.644;2022-12-29T05:32:13;99299.25;;;15.63;57.05
36260;BME280;22296;50.824;5.644;2022-12-29T05:34:41;99296.81;;;15.61;57.03
36260;BME280;22296;50.824;5.644;2022-12-29T05:37:08;99295.88;;;15.54;57.21
36260;BME280;22296;50.824;5.644;2022-12-29T05:39:36;99298.34;;;15.59;57.04
36260;BME280;22296;50.824;5.644;2022-12-29T05:42:04;99308.75;;;15.62;56.98
36260;BME280;22296;50.824;5.644;2022-12-29T05:44:43;99293.91;;;15.54;57.18
36260;BME280;22296;50.824;5.644;2022-12-29T05:47:23;99301.50;;;15.57;57.17
36260;BME280;22296;50.824;5.644;2022-12-29T05:50:10;99298.34;;;15.59;57.13
36260;BME280;22296;50.824;5.644;2022-12-29T05:53:07;99307.59;;;15.63;57.03
36260;BME280;22296;50.824;5.644;2022-12-29T05:55:35;99307.88;;;15.58;57.10
36260;BME280;22296;50.824;5.644;2022-12-29T05:58:04;99316.47;;;15.53;57.21
36260;BME280;22296;50.824;5.644;2022-12-29T06:00:31;99315.13;;;15.62;56.95
36260;BME280;22296;50.824;5.644;2022-12-29T06:02:58;99317.44;;;15.45;57.40
36260;BME280;22296;50.824;5.644;2022-12-29T06:05:26;99322.78;;;15.50;57.36
36260;BME280;22296;50.824;5.644;2022-12-29T06:07:53;99323.13;;;15.48;57.30
36260;BME280;22296;50.824;5.644;2022-12-29T06:10:21;99326.50;;;15.41;57.65
36260;BME280;22296;50.824;5.644;2022-12-29T06:13:14;99326.50;;;15.41;57.58
36260;BME280;22296;50.824;5.644;2022-12-29T06:15:43;99339.88;;;15.52;57.49
36260;BME280;22296;50.824;5.644;2022-12-29T06:18:10;99335.47;;;15.51;57.29
36260;BME280;22296;50.824;5.644;2022-12-29T06:20:45;99337.38;;;15.47;57.41
36260;BME280;22296;50.824;5.644;2022-12-29T06:23:12;99340.75;;;15.40;57.61
36260;BME280;22296;50.824;5.644;2022-12-29T06:25:39;99351.06;;;15.39;57.28
36260;BME280;22296;50.824;5.644;2022-12-29T06:28:07;99336.78;;;15.41;57.33
36260;BME280;22296;50.824;5.644;2022-12-29T06:30:35;99350.16;;;15.35;57.54
36260;BME280;22296;50.824;5.644;2022-12-29T06:33:02;99346.13;;;15.33;57.62
36260;BME280;22296;50.824;5.644;2022-12-29T06:35:29;99354.63;;;15.24;57.41
36260;BME280;22296;50.824;5.644;2022-12-29T06:37:55;99349.88;;;15.25;57.70
36260;BME280;22296;50.824;5.644;2022-12-29T06:40:22;99353.19;;;15.30;57.44
36260;BME280;22296;50.824;5.644;2022-12-29T06:43:07;99379.19;;;15.22;57.71
36260;BME280;22296;50.824;5.644;2022-12-29T06:45:58;99370.03;;;15.22;57.55
36260;BME280;22296;50.824;5.644;2022-12-29T06:48:25;99372.19;;;15.28;57.27
36260;BME280;22296;50.824;5.644;2022-12-29T06:50:52;99377.56;;;15.21;57.56
36260;BME280;22296;50.824;5.644;2022-12-29T06:53:19;99384.72;;;15.22;57.40
36260;BME280;22296;50.824;5.644;2022-12-29T06:55:46;99384.53;;;15.15;57.54
36260;BME280;22296;50.824;5.644;2022-12-29T06:58:13;99375.97;;;15.20;57.44
36260;BME280;22296;50.824;5.644;2022-12-29T07:00:39;99377.38;;;15.14;57.50
36260;BME280;22296;50.824;5.644;2022-12-29T07:03:07;99382.13;;;15.14;57.57
36260;BME280;22296;50.824;5.644;2022-12-29T07:05:34;99383.22;;;15.09;57.82
36260;BME280;22296;50.824;5.644;2022-12-29T07:08:01;99382.03;;;15.10;57.60
36260;BME280;22296;50.824;5.644;2022-12-29T07:10:28;99379.53;;;15.05;57.75
36260;BME280;22296;50.824;5.644;2022-12-29T07:12:54;99386.00;;;15.09;57.69
36260;BME280;22296;50.824;5.644;2022-12-29T07:15:21;99391.53;;;15.09;57.66
36260;BME280;22296;50.824;5.644;2022-12-29T07:17:48;99398.19;;;15.20;57.43
36260;BME280;22296;50.824;5.644;2022-12-29T07:20:16;99402.91;;;15.20;57.25
36260;BME280;22296;50.824;5.644;2022-12-29T07:22:51;99400.75;;;15.13;57.38
36260;BME280;22296;50.824;5.644;2022-12-29T07:25:18;99408.97;;;15.10;57.54
36260;BME280;22296;50.824;5.644;2022-12-29T07:27:45;99416.44;;;15.06;57.43
36260;BME280;22296;50.824;5.644;2022-12-29T07:30:12;99420.47;;;15.08;57.35
36260;BME280;22296;50.824;5.644;2022-12-29T07:32:39;99415.88;;;15.00;57.50
36260;BME280;22296;50.824;5.644;2022-12-29T07:35:06;99416.06;;;15.07;57.36
36260;BME280;22296;50.824;5.644;2022-12-29T07:37:33;99420.34;;;15.05;57.52
36260;BME280;22296;50.824;5.644;2022-12-29T07:40:02;99427.88;;;15.04;57.50
36260;BME280;22296;50.824;5.644;2022-12-29T07:42:30;99429.50;;;15.05;57.98
36260;BME280;22296;50.824;5.644;2022-12-29T07:44:58;99420.25;;;15.01;58.43
36260;BME280;22296;50.824;5.644;2022-12-29T07:47:32;99423.25;;;15.08;57.98
36260;BME280;22296;50.824;5.644;2022-12-29T07:49:59;99435.00;;;15.17;57.91
36260;BME280;22296;50.824;5.644;2022-12-29T07:52:26;99438.16;;;15.31;57.75
36260;BME280;22296;50.824;5.644;2022-12-29T07:54:52;99439.09;;;15.51;57.66
36260;BME280;22296;50.824;5.644;2022-12-29T07:57:19;99445.19;;;15.57;57.77
36260;BME280;22296;50.824;5.644;2022-12-29T07:59:51;99432.38;;;15.68;57.39
36260;BME280;22296;50.824;5.644;2022-12-29T08:02:18;99449.66;;;15.77;57.40
36260;BME280;22296;50.824;5.644;2022-12-29T08:04:45;99441.97;;;15.86;56.96
36260;BME280;22296;50.824;5.644;2022-12-29T08:07:12;99458.91;;;15.81;56.84
36260;BME280;22296;50.824;5.644;2022-12-29T08:09:38;99468.75;;;15.78;56.85
36260;BME280;22296;50.824;5.644;2022-12-29T08:12:05;99466.06;;;15.82;56.73
36260;BME280;22296;50.824;5.644;2022-12-29T08:14:32;99464.63;;;15.88;56.68
36260;BME280;22296;50.824;5.644;2022-12-29T08:16:59;99465.34;;;16.01;56.29
36260;BME280;22296;50.824;5.644;2022-12-29T08:19:26;99467.47;;;16.07;56.00
36260;BME280;22296;50.824;5.644;2022-12-29T08:21:53;99482.91;;;16.20;55.66
36260;BME280;22296;50.824;5.644;2022-12-29T08:24:20;99485.50;;;16.29;55.45
36260;BME280;22296;50.824;5.644;2022-12-29T08:26:46;99489.25;;;16.36;55.43
36260;BME280;22296;50.824;5.644;2022-12-29T08:29:13;99493.34;;;16.42;55.14
36260;BME280;22296;50.824;5.644;2022-12-29T08:31:40;99485.91;;;16.46;55.01
36260;BME280;22296;50.824;5.644;2022-12-29T08:34:07;99487.97;;;16.49;55.13
36260;BME280;22296;50.824;5.644;2022-12-29T08:36:33;99483.31;;;16.53;54.70
36260;BME280;22296;50.824;5.644;2022-12-29T08:39:00;99490.50;;;16.55;54.88
36260;BME280;22296;50.824;5.644;2022-12-29T08:41:27;99499.38;;;16.60;54.77
36260;BME280;22296;50.824;5.644;2022-12-29T08:43:53;99494.69;;;16.64;54.64
36260;BME280;22296;50.824;5.644;2022-12-29T08:46:20;99498.78;;;16.70;54.43
36260;BME280;22296;50.824;5.644;2022-12-29T08:48:47;99496.47;;;16.72;54.46
36260;BME280;22296;50.824;5.644;2022-12-29T08:51:14;99498.88;;;16.74;54.41
36260;BME280;22296;50.824;5.644;2022-12-29T08:53:46;99501.38;;;16.79;54.18
36260;BME280;22296;50.824;5.644;2022-12-29T08:56:13;99505.31;;;16.78;54.41
36260;BME280;22296;50.824;5.644;2022-12-29T08:58:47;99507.38;;;16.81;54.23
36260;BME280;22296;50.824;5.644;2022-12-29T09:01:14;99511.75;;;16.82;54.22
36260;BME280;22296;50.824;5.644;2022-12-29T09:03:40;99513.56;;;16.90;53.95
36260;BME280;22296;50.824;5.644;2022-12-29T09:06:27;99525.13;;;16.92;53.93
36260;BME280;22296;50.824;5.644;2022-12-29T09:08:55;99521.97;;;16.93;53.80
36260;BME280;22296;50.824;5.644;2022-12-29T09:11:24;99512.09;;;16.96;53.87
36260;BME280;22296;50.824;5.644;2022-12-29T09:13:51;99509.75;;;16.98;53.75
36260;BME280;22296;50.824;5.644;2022-12-29T09:16:20;99515.31;;;16.98;53.87
36260;BME280;22296;50.824;5.644;2022-12-29T09:18:48;99525.25;;;16.99;53.76
36260;BME280;22296;50.824;5.644;2022-12-29T09:21:15;99530.47;;;17.00;53.79
36260;BME280;22296;50.824;5.644;2022-12-29T09:23:42;99535.31;;;17.03;53.62
36260;BME280;22296;50.824;5.644;2022-12-29T09:26:08;99540.81;;;17.00;53.78
36260;BME280;22296;50.824;5.644;2022-12-29T09:28:35;99548.00;;;17.01;53.84
36260;BME280;22296;50.824;5.644;2022-12-29T09:31:03;99543.69;;;17.03;53.94
36260;BME280;22296;50.824;5.644;2022-12-29T09:33:30;99544.13;;;17.05;53.75
36260;BME280;22296;50.824;5.644;2022-12-29T09:35:59;99548.88;;;17.05;53.63
36260;BME280;22296;50.824;5.644;2022-12-29T09:38:27;99544.91;;;17.06;53.79
36260;BME280;22296;50.824;5.644;2022-12-29T09:40:58;99535.41;;;17.07;53.64
36260;BME280;22296;50.824;5.644;2022-12-29T09:46:13;99557.38;;;17.12;53.67
36260;BME280;22296;50.824;5.644;2022-12-29T09:48:48;99550.66;;;17.13;53.41
36260;BME280;22296;50.824;5.644;2022-12-29T09:51:22;99549.75;;;17.09;53.45
36260;BME280;22296;50.824;5.644;2022-12-29T09:54:04;99555.91;;;16.99;53.84
36260;BME280;22296;50.824;5.644;2022-12-29T09:56:40;99565.16;;;17.03;53.62
36260;BME280;22296;50.824;5.644;2022-12-29T09:59:12;99573.88;;;17.01;53.81
36260;BME280;22296;50.824;5.644;2022-12-29T10:01:53;99578.50;;;17.13;53.40
36260;BME280;22296;50.824;5.644;2022-12-29T10:04:26;99587.31;;;17.15;53.30
36260;BME280;22296;50.824;5.644;2022-12-29T10:06:58;99582.59;;;17.19;53.16
36260;BME280;22296;50.824;5.644;2022-12-29T10:15:04;99597.13;;;17.28;53.07
36260;BME280;22296;50.824;5.644;2022-12-29T10:23:40;99595.84;;;17.41;52.86
36260;BME280;22296;50.824;5.644;2022-12-29T10:26:36;99593.47;;;17.43;52.70
36260;BME280;22296;50.824;5.644;2022-12-29T10:29:09;99598.31;;;17.46;52.51
36260;BME280;22296;50.824;5.644;2022-12-29T10:32:04;99597.16;;;17.47;52.20
36260;BME280;22296;50.824;5.644;2022-12-29T10:34:42;99605.69;;;17.54;52.36
36260;BME280;22296;50.824;5.644;2022-12-29T10:40:09;99604.94;;;17.57;52.11
36260;BME280;22296;50.824;5.644;2022-12-29T10:42:43;99605.09;;;17.64;52.17
36260;BME280;22296;50.824;5.644;2022-12-29T10:45:13;99615.34;;;17.60;52.08
36260;BME280;22296;50.824;5.644;2022-12-29T10:48:09;99622.59;;;17.65;51.94
36260;BME280;22296;50.824;5.644;2022-12-29T10:50:39;99631.78;;;17.65;52.26
36260;BME280;22296;50.824;5.644;2022-12-29T10:53:17;99621.94;;;17.72;52.11
36260;BME280;22296;50.824;5.644;2022-12-29T10:55:46;99624.44;;;17.77;51.78
36260;BME280;22296;50.824;5.644;2022-12-29T10:58:14;99626.78;;;17.75;51.78
36260;BME280;22296;50.824;5.644;2022-12-29T11:00:43;99625.16;;;17.74;51.77
36260;BME280;22296;50.824;5.644;2022-12-29T11:03:43;99635.75;;;17.84;51.75
36260;BME280;22296;50.824;5.644;2022-12-29T11:06:24;99631.78;;;17.85;51.60
36260;BME280;22296;50.824;5.644;2022-12-29T11:08:59;99634.59;;;17.85;51.42
36260;BME280;22296;50.824;5.644;2022-12-29T11:11:33;99639.84;;;17.90;51.43
36260;BME280;22296;50.824;5.644;2022-12-29T11:14:21;99641.22;;;17.99;51.54
36260;BME280;22296;50.824;5.644;2022-12-29T11:17:02;99643.66;;;18.01;51.39
36260;BME280;22296;50.824;5.644;2022-12-29T11:19:32;99650.53;;;18.07;51.29
36260;BME280;22296;50.824;5.644;2022-12-29T11:22:22;99651.72;;;18.06;51.34
36260;BME280;22296;50.824;5.644;2022-12-29T11:24:51;99652.22;;;18.11;51.29
36260;BME280;22296;50.824;5.644;2022-12-29T11:27:23;99656.97;;;18.11;50.95
36260;BME280;22296;50.824;5.644;2022-12-29T11:29:52;99653.03;;;18.12;51.37
36260;BME280;22296;50.824;5.644;2022-12-29T11:32:26;99669.03;;;18.15;51.01
36260;BME280;22296;50.824;5.644;2022-12-29T11:34:57;99674.59;;;18.15;51.19
36260;BME280;22296;50.824;5.644;2022-12-29T11:37:36;99666.66;;;18.17;51.03
36260;BME280;22296;50.824;5.644;2022-12-29T11:40:19;99673.13;;;18.21;50.90
36260;BME280;22296;50.824;5.644;2022-12-29T11:43:03;99681.13;;;18.22;51.15
36260;BME280;22296;50.824;5.644;2022-12-29T11:45:34;99680.19;;;18.15;51.27
36260;BME280;22296;50.824;5.644;2022-12-29T11:48:14;99689.72;;;18.14;51.48
36260;BME280;22296;50.824;5.644;2022-12-29T11:50:50;99683.06;;;18.18;51.01
36260;BME280;22296;50.824;5.644;2022-12-29T11:55:55;99692.22;;;18.19;51.79
36260;BME280;22296;50.824;5.644;2022-12-29T11:58:30;99691.63;;;18.29;51.30
36260;BME280;22296;50.824;5.644;2022-12-29T12:01:02;99690.06;;;18.32;51.67
36260;BME280;22296;50.824;5.644;2022-12-29T12:03:35;99694.56;;;18.36;51.81
36260;BME280;22296;50.824;5.644;2022-12-29T12:06:03;99691.81;;;18.40;51.68
36260;BME280;22296;50.824;5.644;2022-12-29T12:08:39;99693.06;;;18.42;51.43
36260;BME280;22296;50.824;5.644;2022-12-29T12:11:15;99696.00;;;18.49;51.62
36260;BME280;22296;50.824;5.644;2022-12-29T12:16:54;99694.38;;;18.48;51.84
36260;BME280;22296;50.824;5.644;2022-12-29T12:19:34;99698.47;;;18.54;51.73
36260;BME280;22296;50.824;5.644;2022-12-29T12:22:13;99695.28;;;18.52;51.84
36260;BME280;22296;50.824;5.644;2022-12-29T12:24:50;99693.72;;;18.55;51.72
36260;BME280;22296;50.824;5.644;2022-12-29T12:27:23;99702.00;;;18.51;51.82
36260;BME280;22296;50.824;5.644;2022-12-29T12:30:20;99706.56;;;18.59;51.61
36260;BME280;22296;50.824;5.644;2022-12-29T12:33:04;99706.56;;;18.59;51.68
36260;BME280;22296;50.824;5.644;2022-12-29T12:35:44;99713.66;;;18.53;51.39
36260;BME280;22296;50.824;5.644;2022-12-29T12:41:17;99711.13;;;18.48;51.66
36260;BME280;22296;50.824;5.644;2022-12-29T12:55:22;99705.19;;;18.50;51.36
36260;BME280;22296;50.824;5.644;2022-12-29T13:00:16;99708.81;;;18.50;51.50
36260;BME280;22296;50.824;5.644;2022-12-29T13:09:10;99710.84;;;18.53;51.37
36260;BME280;22296;50.824;5.644;2022-12-29T13:17:36;99715.09;;;18.47;51.43
36260;BME280;22296;50.824;5.644;2022-12-29T13:26:19;99720.81;;;18.54;51.36
36260;BME280;22296;50.824;5.644;2022-12-29T13:28:54;99704.88;;;18.55;50.97
36260;BME280;22296;50.824;5.644;2022-12-29T13:31:43;99704.03;;;18.51;51.12
36260;BME280;22296;50.824;5.644;2022-12-29T13:41:52;99720.41;;;18.52;51.12
36260;BME280;22296;50.824;5.644;2022-12-29T13:44:43;99720.88;;;18.58;51.34
36260;BME280;22296;50.824;5.644;2022-12-29T13:47:22;99720.88;;;18.58;50.90
36260;BME280;22296;50.824;5.644;2022-12-29T13:49:52;99726.41;;;18.54;50.99
36260;BME280;22296;50.824;5.644;2022-12-29T13:58:03;99730.81;;;18.55;51.17
36260;BME280;22296;50.824;5.644;2022-12-29T14:03:46;99745.94;;;18.54;51.39
36260;BME280;22296;50.824;5.644;2022-12-29T14:08:46;99740.69;;;18.49;51.61
36260;BME280;22296;50.824;5.644;2022-12-29T14:11:15;99748.16;;;18.64;51.39
36260;BME280;22296;50.824;5.644;2022-12-29T14:13:45;99745.03;;;18.69;51.36
36260;BME280;22296;50.824;5.644;2022-12-29T14:16:33;99747.50;;;18.74;51.64
36260;BME280;22296;50.824;5.644;2022-12-29T14:19:28;99746.03;;;18.81;51.80
36260;BME280;22296;50.824;5.644;2022-12-29T14:21:55;99740.34;;;18.73;51.99
36260;BME280;22296;50.824;5.644;2022-12-29T14:29:51;99748.56;;;18.89;51.67
36260;BME280;22296;50.824;5.644;2022-12-29T14:34:48;99753.09;;;18.74;51.99
36260;BME280;22296;50.824;5.644;2022-12-29T14:40:04;99766.81;;;18.83;51.81
36260;BME280;22296;50.824;5.644;2022-12-29T14:42:33;99754.09;;;18.86;51.83
36260;BME280;22296;50.824;5.644;2022-12-29T14:47:53;99750.88;;;18.84;51.88
36260;BME280;22296;50.824;5.644;2022-12-29T14:55:44;99764.53;;;18.89;51.48
36260;BME280;22296;50.824;5.644;2022-12-29T14:58:23;99757.63;;;18.83;51.56
36260;BME280;22296;50.824;5.644;2022-12-29T15:00:53;99758.84;;;18.82;51.45
36260;BME280;22296;50.824;5.644;2022-12-29T15:03:44;99759.56;;;18.78;51.63
36260;BME280;22296;50.824;5.644;2022-12-29T15:06:13;99773.13;;;18.76;51.08
36260;BME280;22296;50.824;5.644;2022-12-29T15:08:59;99784.28;;;18.76;51.23
36260;BME280;22296;50.824;5.644;2022-12-29T15:14:31;99781.34;;;18.69;51.45
36260;BME280;22296;50.824;5.644;2022-12-29T15:16:59;99781.72;;;18.68;51.46
36260;BME280;22296;50.824;5.644;2022-12-29T15:19:27;99785.75;;;18.70;51.22
36260;BME280;22296;50.824;5.644;2022-12-29T15:21:55;99784.13;;;18.69;51.61
36260;BME280;22296;50.824;5.644;2022-12-29T15:24:24;99792.41;;;18.62;51.35
36260;BME280;22296;50.824;5.644;2022-12-29T15:26:53;99789.66;;;18.66;51.22
36260;BME280;22296;50.824;5.644;2022-12-29T15:29:33;99794.66;;;18.57;51.85
36260;BME280;22296;50.824;5.644;2022-12-29T15:34:50;99796.22;;;18.54;51.54
36260;BME280;22296;50.824;5.644;2022-12-29T15:39:49;99795.94;;;18.59;51.52
36260;BME280;22296;50.824;5.644;2022-12-29T15:45:06;99795.84;;;18.56;51.25
36260;BME280;22296;50.824;5.644;2022-12-29T15:47:38;99794.63;;;18.53;51.74
36260;BME280;22296;50.824;5.644;2022-12-29T15:50:21;99798.22;;;18.54;52.46
36260;BME280;22296;50.824;5.644;2022-12-29T15:52:49;99797.97;;;18.62;52.05
36260;BME280;22296;50.824;5.644;2022-12-29T15:58:02;99802.56;;;18.74;51.89